createdAt,value
2023-03-06T00:00:27.222Z,29.40
2023-03-06T00:05:31.804Z,27.10
2023-03-06T00:10:36.516Z,26.80
2023-03-06T00:15:40.996Z,32.40
2023-03-06T00:20:46.050Z,33.20
2023-03-06T00:25:51.142Z,29.37
2023-03-06T00:30:54.396Z,27.30
2023-03-06T00:35:57.807Z,34.00
2023-03-06T00:41:08.619Z,29.50
2023-03-06T00:46:12.375Z,29.77
2023-03-06T00:51:16.766Z,23.10
2023-03-06T00:56:21.563Z,22.23
2023-03-06T01:01:24.970Z,20.23
2023-03-06T01:06:29.391Z,28.43
2023-03-06T01:11:34.196Z,21.47
2023-03-06T01:16:37.503Z,21.57
2023-03-06T01:21:41.688Z,21.50
2023-03-06T01:26:46.312Z,21.00
2023-03-06T01:31:49.597Z,19.73
2023-03-06T01:36:52.880Z,19.40
2023-03-06T01:41:57.566Z,17.90
2023-03-06T01:47:02.531Z,21.73
2023-03-06T01:52:13.068Z,19.43
2023-03-06T01:57:24.953Z,19.60
2023-03-06T02:02:28.529Z,21.53
2023-03-06T02:07:32.836Z,26.10
2023-03-06T02:12:37.979Z,21.83
2023-03-06T02:17:42.378Z,23.17
2023-03-06T02:22:51.542Z,28.17
2023-03-06T02:27:56.158Z,22.77
2023-03-06T02:32:59.894Z,25.30
2023-03-06T02:38:09.230Z,26.53
2023-03-06T02:43:15.647Z,24.90
2023-03-06T02:48:20.332Z,27.90
2023-03-06T02:53:23.858Z,30.03
2023-03-06T02:58:28.607Z,22.30
2023-03-06T03:03:33.222Z,28.00
2023-03-06T03:08:36.875Z,26.17
2023-03-06T03:13:41.650Z,25.17
2023-03-06T03:18:48.130Z,20.17
2023-03-06T03:23:51.765Z,30.63
2023-03-06T03:28:56.586Z,28.37
2023-03-06T03:34:00.114Z,27.60
2023-03-06T03:39:03.621Z,26.47
2023-03-06T03:44:08.334Z,22.40
2023-03-06T03:49:11.728Z,24.97
2023-03-06T03:54:15.390Z,25.67
2023-03-06T03:59:21.014Z,27.20
2023-03-06T04:04:24.344Z,26.03
2023-03-06T04:09:27.881Z,27.60
2023-03-06T04:14:33.674Z,27.13
2023-03-06T04:19:38.443Z,29.40
2023-03-06T04:24:42.960Z,24.83
2023-03-06T04:29:47.627Z,19.80
2023-03-06T04:34:51.104Z,25.50
2023-03-06T04:39:55.169Z,21.53
2023-03-06T04:44:59.781Z,25.00
2023-03-06T04:50:04.033Z,22.03
2023-03-06T04:55:08.887Z,16.50
2023-03-06T05:00:17.639Z,24.00
2023-03-06T05:05:21.012Z,24.20
2023-03-06T05:10:25.128Z,20.37
2023-03-06T05:15:29.924Z,20.97
2023-03-06T05:20:33.853Z,21.00
2023-03-06T05:25:38.963Z,21.67
2023-03-06T05:30:45.851Z,19.40
2023-03-06T05:35:55.297Z,21.90
2023-03-06T05:40:58.618Z,23.37
2023-03-06T05:46:04.874Z,20.97
2023-03-06T05:51:08.165Z,21.17
2023-03-06T05:56:11.465Z,21.00
2023-03-06T06:01:17.725Z,18.63
2023-03-06T06:06:20.922Z,23.67
2023-03-06T06:11:24.227Z,21.83
2023-03-06T06:16:31.116Z,21.93
2023-03-06T06:21:34.411Z,20.47
2023-03-06T06:26:37.710Z,19.60
2023-03-06T06:31:42.619Z,18.07
2023-03-06T06:36:46.032Z,20.27
2023-03-06T06:42:05.537Z,23.03
2023-03-06T06:47:22.821Z,19.70
2023-03-06T06:52:28.009Z,17.00
2023-03-06T06:57:31.285Z,22.67
2023-03-06T07:02:36.906Z,20.93
2023-03-06T07:13:10.001Z,18.73
2023-03-06T07:18:16.125Z,23.80
2023-03-06T07:23:20.185Z,16.30
2023-03-06T07:28:28.184Z,18.37
2023-03-06T07:33:32.775Z,18.33
2023-03-06T07:38:36.029Z,16.53
2023-03-06T07:49:08.817Z,15.03
2023-03-06T07:54:12.609Z,16.00
2023-03-06T07:59:15.766Z,15.20
2023-03-06T08:04:22.076Z,19.50
2023-03-06T08:09:27.609Z,20.57
2023-03-06T08:14:33.134Z,25.30
2023-03-06T08:19:40.102Z,17.37
2023-03-06T08:24:43.593Z,20.88
2023-03-06T08:29:48.688Z,16.93
2023-03-06T08:34:53.469Z,28.02
2023-03-06T08:39:56.761Z,18.70
2023-03-06T08:45:00.031Z,13.82
2023-03-06T08:50:06.209Z,14.90
2023-03-06T08:55:14.798Z,14.40
2023-03-06T09:00:21.263Z,14.77
2023-03-06T09:05:26.021Z,12.02
2023-03-06T09:10:29.570Z,12.85
2023-03-06T09:15:32.917Z,15.65
2023-03-06T09:20:37.602Z,13.37
2023-03-06T09:25:44.565Z,14.77
2023-03-06T09:30:49.067Z,12.50
2023-03-06T09:35:59.199Z,10.48
2023-03-06T09:41:10.070Z,16.30
2023-03-06T09:46:22.805Z,16.70
2023-03-06T09:51:37.091Z,15.13
2023-03-06T09:56:40.784Z,15.63
2023-03-06T10:01:51.923Z,14.55
2023-03-06T10:07:00.864Z,12.65
2023-03-06T10:12:08.646Z,17.65
2023-03-06T10:17:17.776Z,12.48
2023-03-06T10:22:31.454Z,12.00
2023-03-06T10:27:44.330Z,11.55
2023-03-06T10:32:52.477Z,13.30
2023-03-06T10:38:04.894Z,13.80
2023-03-06T10:43:13.234Z,13.57
2023-03-06T10:48:20.988Z,13.05
2023-03-06T10:53:29.213Z,17.23
2023-03-06T10:59:25.726Z,15.40
2023-03-06T11:04:32.913Z,14.23
2023-03-06T11:09:38.638Z,15.25
2023-03-06T11:14:41.966Z,15.75
2023-03-06T11:19:45.421Z,14.25
2023-03-06T11:24:52.438Z,13.40
2023-03-06T11:29:56.855Z,12.30
2023-03-06T11:40:37.558Z,8.10
2023-03-06T11:45:46.956Z,8.65
2023-03-06T11:50:56.091Z,14.38
2023-03-06T11:56:11.053Z,7.75
2023-03-06T12:01:26.946Z,10.63
2023-03-06T12:06:41.365Z,11.73
2023-03-06T12:11:53.344Z,9.15
2023-03-06T12:17:08.842Z,9.00
2023-03-06T12:22:31.224Z,11.02
2023-03-06T12:27:51.918Z,13.25
2023-03-06T12:33:11.081Z,12.50
2023-03-06T12:38:37.385Z,9.68
2023-03-06T12:44:18.485Z,8.52
2023-03-06T12:49:31.890Z,9.43
2023-03-06T12:54:40.100Z,9.02
2023-03-06T12:59:48.958Z,11.80
2023-03-06T13:05:05.122Z,8.15
2023-03-06T13:10:18.045Z,11.25
2023-03-06T13:15:43.095Z,6.45
2023-03-06T13:20:47.332Z,10.98
2023-03-06T13:25:53.089Z,13.60
2023-03-06T13:30:57.919Z,8.93
2023-03-06T13:36:01.814Z,7.40
2023-03-06T13:41:57.308Z,8.98
2023-03-06T13:47:07.106Z,10.05
2023-03-06T13:52:19.575Z,7.80
2023-03-06T13:57:39.485Z,9.73
2023-03-06T14:03:11.800Z,7.60
2023-03-06T14:08:17.264Z,8.85
2023-03-06T14:13:26.651Z,7.53
2023-03-06T14:18:41.261Z,10.23
2023-03-06T14:23:47.354Z,10.07
2023-03-06T14:28:57.194Z,9.75
2023-03-06T14:34:04.988Z,7.78
2023-03-06T14:39:13.964Z,7.53
2023-03-06T14:44:20.059Z,7.85
2023-03-06T14:49:26.105Z,6.63
2023-03-06T14:54:34.962Z,8.02
2023-03-06T14:59:43.566Z,8.25
2023-03-06T15:04:50.932Z,8.00
2023-03-06T15:09:55.619Z,6.50
2023-03-06T15:15:01.743Z,8.57
2023-03-06T15:20:09.562Z,9.48
2023-03-06T15:25:22.457Z,7.38
2023-03-06T15:36:21.409Z,9.68
2023-03-06T15:41:32.901Z,8.63
2023-03-06T15:46:36.259Z,11.98
2023-03-06T15:51:41.799Z,11.32
2023-03-06T15:56:47.091Z,10.57
2023-03-06T16:01:51.410Z,8.65
2023-03-06T16:06:56.119Z,9.60
2023-03-06T16:12:03.707Z,11.40
2023-03-06T16:17:07.269Z,10.65
2023-03-06T16:22:14.484Z,11.40
2023-03-06T16:27:22.588Z,9.87
2023-03-06T16:32:28.592Z,9.67
2023-03-06T16:37:37.539Z,9.77
2023-03-06T16:42:40.912Z,11.10
2023-03-06T16:47:47.668Z,9.83
2023-03-06T16:53:00.237Z,11.83
2023-03-06T16:58:04.191Z,11.00
2023-03-06T17:03:07.901Z,9.93
2023-03-06T17:08:12.856Z,11.60
2023-03-06T17:13:16.192Z,10.80
2023-03-06T17:18:21.292Z,9.83
2023-03-06T17:23:28.908Z,10.83
2023-03-06T17:28:33.795Z,10.77
2023-03-06T17:33:39.207Z,14.20
2023-03-06T17:38:44.443Z,10.30
2023-03-06T17:43:47.740Z,10.40
2023-03-06T17:48:52.263Z,12.73
2023-03-06T17:53:57.519Z,9.87
2023-03-06T17:59:00.993Z,10.63
2023-03-06T18:04:05.197Z,12.47
2023-03-06T18:09:10.245Z,12.87
2023-03-06T18:14:15.538Z,8.67
2023-03-06T18:19:18.848Z,12.40
2023-03-06T18:24:23.543Z,11.20
2023-03-06T18:29:27.087Z,11.77
2023-03-06T18:34:32.954Z,10.20
2023-03-06T18:39:39.191Z,12.00
2023-03-06T18:44:44.109Z,12.20
2023-03-06T18:49:47.437Z,10.73
2023-03-06T18:54:53.573Z,9.40
2023-03-06T18:59:57.664Z,9.80
2023-03-06T19:05:01.075Z,16.30
2023-03-06T19:10:06.482Z,10.23
2023-03-06T19:15:10.570Z,10.83
2023-03-06T19:20:14.054Z,12.47
2023-03-06T19:25:19.168Z,11.27
2023-03-06T19:30:26.626Z,14.00
2023-03-06T19:35:29.924Z,14.53
2023-03-06T19:40:35.825Z,11.97
2023-03-06T19:45:43.169Z,12.37
2023-03-06T19:50:48.187Z,11.87
2023-03-06T19:55:55.131Z,13.93
2023-03-06T20:01:05.146Z,13.60
2023-03-06T20:06:13.245Z,15.40
2023-03-06T20:11:19.537Z,12.90
2023-03-06T20:16:22.990Z,16.43
2023-03-06T20:21:29.368Z,15.70
2023-03-06T20:26:36.888Z,13.83
2023-03-06T20:31:40.899Z,15.23
2023-03-06T20:36:46.857Z,13.57
2023-03-06T20:41:52.253Z,13.33
2023-03-06T20:46:55.749Z,14.73
2023-03-06T20:51:59.148Z,11.33
2023-03-06T20:57:04.002Z,11.83
2023-03-06T21:02:10.311Z,10.80
2023-03-06T21:07:13.992Z,12.90
2023-03-06T21:12:26.819Z,15.90
2023-03-06T21:17:37.473Z,13.60
2023-03-06T21:22:44.434Z,16.00
2023-03-06T21:27:49.343Z,10.97
2023-03-06T21:32:53.925Z,13.90
2023-03-06T21:37:57.303Z,15.20
2023-03-06T21:43:02.145Z,16.47
2023-03-06T21:48:08.632Z,14.93
2023-03-06T21:53:18.903Z,14.00
2023-03-06T21:58:32.657Z,12.73
2023-03-06T22:03:37.040Z,15.13
2023-03-06T22:08:40.746Z,15.07
2023-03-06T22:13:48.452Z,15.50
2023-03-06T22:18:52.674Z,13.03
2023-03-06T22:24:01.094Z,11.90
2023-03-06T22:29:05.929Z,15.30
2023-03-06T22:34:09.460Z,14.57
2023-03-06T22:39:14.183Z,12.33
2023-03-06T22:44:23.273Z,12.23
2023-03-06T22:49:26.641Z,14.67
2023-03-06T22:54:33.178Z,16.40
2023-03-06T22:59:38.943Z,13.40
2023-03-06T23:04:42.863Z,13.57
2023-03-06T23:09:46.273Z,11.27
2023-03-06T23:14:51.365Z,14.60
2023-03-06T23:19:58.903Z,10.20
2023-03-06T23:25:02.534Z,15.73
2023-03-06T23:30:09.605Z,13.03
2023-03-06T23:35:14.951Z,10.27
2023-03-06T23:40:18.575Z,11.93
2023-03-06T23:45:23.906Z,10.80
2023-03-06T23:50:27.306Z,10.40
2023-03-06T23:55:30.617Z,12.73
